sensor_id;sensor_type;location;lat;lon;timestamp;pressure;altitude;pressure_sealevel;temperature;humidity
40460;BME280;26164;51.138;16.952;2023-03-03T00:01:04;78132.28;;;-146.39;100.00
40460;BME280;26164;51.138;16.952;2023-03-03T00:03:30;78156.81;;;-146.39;100.00
40460;BME280;26164;51.138;16.952;2023-03-03T00:05:57;78144.56;;;-146.39;100.00
40460;BME280;26164;51.138;16.952;2023-03-03T00:08:39;78128.22;;;-146.39;100.00
40460;BME280;26164;51.138;16.952;2023-03-03T00:11:05;78152.72;;;-146.39;100.00
40460;BME280;26164;51.138;16.952;2023-03-03T00:13:48;78162.94;;;-146.39;100.00
40460;BME280;26164;51.138;16.952;2023-03-03T00:16:30;78152.72;;;-146.39;100.00
40460;BME280;26164;51.138;16.952;2023-03-03T00:18:57;78185.41;;;-146.39;100.00
40460;BME280;26164;51.138;16.952;2023-03-03T00:21:32;78183.34;;;-146.39;100.00
40460;BME280;26164;51.138;16.952;2023-03-03T00:24:14;78191.53;;;-146.39;100.00
40460;BME280;26164;51.138;16.952;2023-03-03T00:26:50;78177.22;;;-146.39;100.00
40460;BME280;26164;51.138;16.952;2023-03-03T00:29:27;78193.56;;;-146.39;100.00
40460;BME280;26164;51.138;16.952;2023-03-03T00:31:54;78207.84;;;-146.39;100.00
40460;BME280;26164;51.138;16.952;2023-03-03T00:34:25;78197.66;;;-146.39;100.00
40460;BME280;26164;51.138;16.952;2023-03-03T00:36:57;78177.22;;;-146.39;100.00
40460;BME280;26164;51.138;16.952;2023-03-03T00:39:32;78160.88;;;-146.39;100.00
40460;BME280;26164;51.138;16.952;2023-03-03T00:42:01;78197.66;;;-146.39;100.00
40460;BME280;26164;51.138;16.952;2023-03-03T00:44:39;78185.41;;;-146.39;100.00
40460;BME280;26164;51.138;16.952;2023-03-03T00:47:24;78218.06;;;-146.39;100.00
40460;BME280;26164;51.138;16.952;2023-03-03T00:49:52;78218.06;;;-146.39;100.00
40460;BME280;26164;51.138;16.952;2023-03-03T00:52:26;78164.97;;;-146.39;100.00
40460;BME280;26164;51.138;16.952;2023-03-03T00:54:53;78164.97;;;-146.39;100.00
40460;BME280;26164;51.138;16.952;2023-03-03T00:57:19;78203.78;;;-146.39;100.00
40460;BME280;26164;51.138;16.952;2023-03-03T00:59:46;78199.69;;;-146.39;100.00
40460;BME280;26164;51.138;16.952;2023-03-03T01:02:12;78224.19;;;-146.39;100.00
40460;BME280;26164;51.138;16.952;2023-03-03T01:04:39;78218.06;;;-146.39;100.00
40460;BME280;26164;51.138;16.952;2023-03-03T01:07:06;78230.31;;;-146.39;100.00
40460;BME280;26164;51.138;16.952;2023-03-03T01:09:32;78226.25;;;-146.39;100.00
40460;BME280;26164;51.138;16.952;2023-03-03T01:11:59;78195.59;;;-146.39;100.00
40460;BME280;26164;51.138;16.952;2023-03-03T01:14:25;78185.41;;;-146.39;100.00
40460;BME280;26164;51.138;16.952;2023-03-03T01:16:51;78173.16;;;-146.39;100.00
40460;BME280;26164;51.138;16.952;2023-03-03T01:19:18;78173.16;;;-146.39;100.00
40460;BME280;26164;51.138;16.952;2023-03-03T01:21:44;78160.88;;;-146.39;100.00
40460;BME280;26164;51.138;16.952;2023-03-03T01:24:09;78148.63;;;-146.39;100.00
40460;BME280;26164;51.138;16.952;2023-03-03T01:26:36;78173.16;;;-146.39;100.00
40460;BME280;26164;51.138;16.952;2023-03-03T01:29:02;78158.84;;;-146.39;100.00
40460;BME280;26164;51.138;16.952;2023-03-03T01:31:28;78132.28;;;-146.39;100.00
40460;BME280;26164;51.138;16.952;2023-03-03T01:33:54;78175.19;;;-146.39;100.00
40460;BME280;26164;51.138;16.952;2023-03-03T01:36:24;78177.22;;;-146.39;100.00
40460;BME280;26164;51.138;16.952;2023-03-03T01:38:50;78197.66;;;-146.39;100.00
40460;BME280;26164;51.138;16.952;2023-03-03T01:41:17;78164.97;;;-146.39;100.00
40460;BME280;26164;51.138;16.952;2023-03-03T01:43:46;78118.00;;;-146.39;100.00
40460;BME280;26164;51.138;16.952;2023-03-03T01:46:29;78111.88;;;-146.39;100.00
40460;BME280;26164;51.138;16.952;2023-03-03T01:49:06;78103.69;;;-146.39;100.00
40460;BME280;26164;51.138;16.952;2023-03-03T01:51:43;78083.28;;;-146.39;100.00
40460;BME280;26164;51.138;16.952;2023-03-03T01:54:38;78068.97;;;-146.39;100.00
40460;BME280;26164;51.138;16.952;2023-03-03T01:57:12;78083.28;;;-146.39;100.00
40460;BME280;26164;51.138;16.952;2023-03-03T01:59:42;78083.28;;;-146.39;100.00
40460;BME280;26164;51.138;16.952;2023-03-03T02:02:10;78075.09;;;-146.39;100.00
40460;BME280;26164;51.138;16.952;2023-03-03T02:04:36;78079.19;;;-146.39;100.00
40460;BME280;26164;51.138;16.952;2023-03-03T02:07:06;78066.94;;;-146.39;100.00
40460;BME280;26164;51.138;16.952;2023-03-03T02:09:53;78054.69;;;-146.39;100.00
40460;BME280;26164;51.138;16.952;2023-03-03T02:12:25;78071.03;;;-146.39;100.00
40460;BME280;26164;51.138;16.952;2023-03-03T02:14:52;78087.38;;;-146.39;100.00
40460;BME280;26164;51.138;16.952;2023-03-03T02:17:18;78066.94;;;-146.39;100.00
40460;BME280;26164;51.138;16.952;2023-03-03T02:20:05;78066.94;;;-146.39;100.00
40460;BME280;26164;51.138;16.952;2023-03-03T02:22:40;78038.34;;;-146.39;100.00
40460;BME280;26164;51.138;16.952;2023-03-03T02:25:15;78028.13;;;-146.39;100.00
40460;BME280;26164;51.138;16.952;2023-03-03T02:27:43;78046.53;;;-146.39;100.00
40460;BME280;26164;51.138;16.952;2023-03-03T02:30:19;78075.09;;;-146.39;100.00
40460;BME280;26164;51.138;16.952;2023-03-03T02:32:46;78087.38;;;-146.39;100.00
40460;BME280;26164;51.138;16.952;2023-03-03T02:35:32;78058.78;;;-146.39;100.00
40460;BME280;26164;51.138;16.952;2023-03-03T02:38:29;78062.84;;;-146.39;100.00
40460;BME280;26164;51.138;16.952;2023-03-03T02:41:15;78058.78;;;-146.39;100.00
40460;BME280;26164;51.138;16.952;2023-03-03T02:43:55;78054.69;;;-146.39;100.00
40460;BME280;26164;51.138;16.952;2023-03-03T02:46:24;78068.97;;;-146.39;100.00
40460;BME280;26164;51.138;16.952;2023-03-03T02:48:51;78105.75;;;-146.39;100.00
40460;BME280;26164;51.138;16.952;2023-03-03T02:51:19;78113.91;;;-146.39;100.00
40460;BME280;26164;51.138;16.952;2023-03-03T02:53:46;78148.63;;;-146.39;100.00
40460;BME280;26164;51.138;16.952;2023-03-03T02:56:11;78152.72;;;-146.39;100.00
40460;BME280;26164;51.138;16.952;2023-03-03T02:58:37;78156.81;;;-146.39;100.00
40460;BME280;26164;51.138;16.952;2023-03-03T03:01:04;78175.19;;;-146.39;100.00
40460;BME280;26164;51.138;16.952;2023-03-03T03:03:30;78158.84;;;-146.39;100.00
40460;BME280;26164;51.138;16.952;2023-03-03T03:05:56;78173.16;;;-146.39;100.00
40460;BME280;26164;51.138;16.952;2023-03-03T03:08:24;78181.31;;;-146.39;100.00
40460;BME280;26164;51.138;16.952;2023-03-03T03:10:50;78169.06;;;-146.39;100.00
40460;BME280;26164;51.138;16.952;2023-03-03T03:13:16;78142.50;;;-146.39;100.00
40460;BME280;26164;51.138;16.952;2023-03-03T03:15:46;78130.25;;;-146.39;100.00
40460;BME280;26164;51.138;16.952;2023-03-03T03:18:13;78148.63;;;-146.39;100.00
40460;BME280;26164;51.138;16.952;2023-03-03T03:20:41;78140.47;;;-146.39;100.00
40460;BME280;26164;51.138;16.952;2023-03-03T03:23:09;78152.72;;;-146.39;100.00
40460;BME280;26164;51.138;16.952;2023-03-03T03:25:35;78148.63;;;-146.39;100.00
40460;BME280;26164;51.138;16.952;2023-03-03T03:28:08;78128.22;;;-146.39;100.00
40460;BME280;26164;51.138;16.952;2023-03-03T03:30:34;78140.47;;;-146.39;100.00
40460;BME280;26164;51.138;16.952;2023-03-03T03:33:00;78148.63;;;-146.39;100.00
40460;BME280;26164;51.138;16.952;2023-03-03T03:35:26;78130.25;;;-146.39;100.00
40460;BME280;26164;51.138;16.952;2023-03-03T03:37:53;78107.78;;;-146.39;100.00
40460;BME280;26164;51.138;16.952;2023-03-03T03:40:20;78095.53;;;-146.39;100.00
40460;BME280;26164;51.138;16.952;2023-03-03T03:42:46;78107.78;;;-146.39;100.00
40460;BME280;26164;51.138;16.952;2023-03-03T03:45:12;78099.63;;;-146.39;100.00
40460;BME280;26164;51.138;16.952;2023-03-03T03:47:44;78095.53;;;-146.39;100.00
40460;BME280;26164;51.138;16.952;2023-03-03T03:50:11;78115.97;;;-146.39;100.00
40460;BME280;26164;51.138;16.952;2023-03-03T03:52:37;78140.47;;;-146.39;100.00
40460;BME280;26164;51.138;16.952;2023-03-03T03:55:04;78144.56;;;-146.39;100.00
40460;BME280;26164;51.138;16.952;2023-03-03T03:57:30;78160.88;;;-146.39;100.00
40460;BME280;26164;51.138;16.952;2023-03-03T03:59:56;78169.06;;;-146.39;100.00
40460;BME280;26164;51.138;16.952;2023-03-03T04:02:22;78173.16;;;-146.39;100.00
40460;BME280;26164;51.138;16.952;2023-03-03T04:04:49;78162.94;;;-146.39;100.00
40460;BME280;26164;51.138;16.952;2023-03-03T04:07:15;78162.94;;;-146.39;100.00
40460;BME280;26164;51.138;16.952;2023-03-03T04:09:40;78177.22;;;-146.39;100.00
40460;BME280;26164;51.138;16.952;2023-03-03T04:12:07;78160.88;;;-146.39;100.00
40460;BME280;26164;51.138;16.952;2023-03-03T04:14:33;78152.72;;;-146.39;100.00
40460;BME280;26164;51.138;16.952;2023-03-03T04:17:00;78160.88;;;-146.39;100.00
40460;BME280;26164;51.138;16.952;2023-03-03T04:19:25;78160.88;;;-146.39;100.00
40460;BME280;26164;51.138;16.952;2023-03-03T04:21:52;78144.56;;;-146.39;100.00
40460;BME280;26164;51.138;16.952;2023-03-03T04:24:17;78167.00;;;-146.39;100.00
40460;BME280;26164;51.138;16.952;2023-03-03T04:26:46;78167.00;;;-146.39;100.00
40460;BME280;26164;51.138;16.952;2023-03-03T04:29:12;78160.88;;;-146.39;100.00
40460;BME280;26164;51.138;16.952;2023-03-03T04:31:40;78171.09;;;-146.39;100.00
40460;BME280;26164;51.138;16.952;2023-03-03T04:34:08;78177.22;;;-146.39;100.00
40460;BME280;26164;51.138;16.952;2023-03-03T04:36:34;78179.28;;;-146.39;100.00
40460;BME280;26164;51.138;16.952;2023-03-03T04:39:00;78197.66;;;-146.39;100.00
40460;BME280;26164;51.138;16.952;2023-03-03T04:41:27;78197.66;;;-146.39;100.00
40460;BME280;26164;51.138;16.952;2023-03-03T04:43:52;78193.56;;;-146.39;100.00
40460;BME280;26164;51.138;16.952;2023-03-03T04:46:18;78169.06;;;-146.39;100.00
40460;BME280;26164;51.138;16.952;2023-03-03T04:48:44;78177.22;;;-146.39;100.00
40460;BME280;26164;51.138;16.952;2023-03-03T04:51:11;78179.28;;;-146.39;100.00
40460;BME280;26164;51.138;16.952;2023-03-03T04:53:37;78193.56;;;-146.39;100.00
40460;BME280;26164;51.138;16.952;2023-03-03T04:56:05;78095.53;;;-146.39;100.00
40460;BME280;26164;51.138;16.952;2023-03-03T04:58:31;78107.78;;;-146.39;100.00
40460;BME280;26164;51.138;16.952;2023-03-03T05:00:57;78095.53;;;-146.39;100.00
40460;BME280;26164;51.138;16.952;2023-03-03T05:03:26;78103.69;;;-146.39;100.00
40460;BME280;26164;51.138;16.952;2023-03-03T05:05:52;78128.22;;;-146.39;100.00
40460;BME280;26164;51.138;16.952;2023-03-03T05:08:18;78089.41;;;-146.39;100.00
40460;BME280;26164;51.138;16.952;2023-03-03T05:10:45;78103.69;;;-146.39;100.00
40460;BME280;26164;51.138;16.952;2023-03-03T05:13:10;78091.44;;;-146.39;100.00
40460;BME280;26164;51.138;16.952;2023-03-03T05:15:40;78089.41;;;-146.39;100.00
40460;BME280;26164;51.138;16.952;2023-03-03T05:18:05;78083.28;;;-146.39;100.00
40460;BME280;26164;51.138;16.952;2023-03-03T05:20:31;78097.56;;;-146.39;100.00
40460;BME280;26164;51.138;16.952;2023-03-03T05:22:57;78103.69;;;-146.39;100.00
40460;BME280;26164;51.138;16.952;2023-03-03T05:25:26;78091.44;;;-146.39;100.00
40460;BME280;26164;51.138;16.952;2023-03-03T05:28:01;78111.88;;;-146.39;100.00
40460;BME280;26164;51.138;16.952;2023-03-03T05:30:31;78105.75;;;-146.39;100.00
40460;BME280;26164;51.138;16.952;2023-03-03T05:32:59;78079.19;;;-146.39;100.00
40460;BME280;26164;51.138;16.952;2023-03-03T05:35:26;78120.03;;;-146.39;100.00
40460;BME280;26164;51.138;16.952;2023-03-03T05:37:54;78079.19;;;-146.39;100.00
40460;BME280;26164;51.138;16.952;2023-03-03T05:40:26;78073.06;;;-146.39;100.00
40460;BME280;26164;51.138;16.952;2023-03-03T05:42:52;78077.16;;;-146.39;100.00
40460;BME280;26164;51.138;16.952;2023-03-03T05:45:19;78107.78;;;-146.39;100.00
40460;BME280;26164;51.138;16.952;2023-03-03T05:47:46;78113.91;;;-146.39;100.00
40460;BME280;26164;51.138;16.952;2023-03-03T05:50:14;78099.63;;;-146.39;100.00
40460;BME280;26164;51.138;16.952;2023-03-03T05:52:40;78087.38;;;-146.39;100.00
40460;BME280;26164;51.138;16.952;2023-03-03T05:55:07;78115.97;;;-146.39;100.00
40460;BME280;26164;51.138;16.952;2023-03-03T06:10:07;78150.69;;;-146.39;100.00
40460;BME280;26164;51.138;16.952;2023-03-03T06:13:36;78152.72;;;-146.39;100.00
40460;BME280;26164;51.138;16.952;2023-03-03T06:16:43;78140.47;;;-146.39;100.00
40460;BME280;26164;51.138;16.952;2023-03-03T06:19:30;78136.38;;;-146.39;100.00
40460;BME280;26164;51.138;16.952;2023-03-03T06:21:57;78160.88;;;-146.39;100.00
40460;BME280;26164;51.138;16.952;2023-03-03T06:24:25;78156.81;;;-146.39;100.00
40460;BME280;26164;51.138;16.952;2023-03-03T06:26:57;78173.16;;;-146.39;100.00
40460;BME280;26164;51.138;16.952;2023-03-03T06:29:23;78175.19;;;-146.39;100.00
40460;BME280;26164;51.138;16.952;2023-03-03T06:31:49;78216.03;;;-146.39;100.00
40460;BME280;26164;51.138;16.952;2023-03-03T06:34:14;78205.81;;;-146.39;100.00
40460;BME280;26164;51.138;16.952;2023-03-03T06:36:40;78177.22;;;-146.39;100.00
40460;BME280;26164;51.138;16.952;2023-03-03T06:39:06;78177.22;;;-146.39;100.00
40460;BME280;26164;51.138;16.952;2023-03-03T06:41:32;78185.41;;;-146.39;100.00
40460;BME280;26164;51.138;16.952;2023-03-03T06:43:58;78171.09;;;-146.39;100.00
40460;BME280;26164;51.138;16.952;2023-03-03T06:46:25;78209.91;;;-146.39;100.00
40460;BME280;26164;51.138;16.952;2023-03-03T06:48:52;78209.91;;;-146.39;100.00
40460;BME280;26164;51.138;16.952;2023-03-03T06:51:24;78193.56;;;-146.39;100.00
40460;BME280;26164;51.138;16.952;2023-03-03T06:53:57;78191.53;;;-146.39;100.00
40460;BME280;26164;51.138;16.952;2023-03-03T06:56:26;78181.31;;;-146.39;100.00
40460;BME280;26164;51.138;16.952;2023-03-03T06:58:54;78187.44;;;-146.39;100.00
40460;BME280;26164;51.138;16.952;2023-03-03T07:01:22;78205.81;;;-146.39;100.00
40460;BME280;26164;51.138;16.952;2023-03-03T07:03:48;78197.66;;;-146.39;100.00
40460;BME280;26164;51.138;16.952;2023-03-03T07:06:24;78193.56;;;-146.39;100.00
40460;BME280;26164;51.138;16.952;2023-03-03T07:08:51;78214.00;;;-146.39;100.00
40460;BME280;26164;51.138;16.952;2023-03-03T07:11:20;78205.81;;;-146.39;100.00
40460;BME280;26164;51.138;16.952;2023-03-03T07:13:51;78230.31;;;-146.39;100.00
40460;BME280;26164;51.138;16.952;2023-03-03T07:16:18;78242.59;;;-146.39;100.00
40460;BME280;26164;51.138;16.952;2023-03-03T07:18:56;78220.13;;;-146.39;100.00
40460;BME280;26164;51.138;16.952;2023-03-03T07:21:34;78209.91;;;-146.39;100.00
40460;BME280;26164;51.138;16.952;2023-03-03T07:24:27;78234.41;;;-146.39;100.00
40460;BME280;26164;51.138;16.952;2023-03-03T07:26:57;78246.66;;;-146.39;100.00
40460;BME280;26164;51.138;16.952;2023-03-03T07:29:28;78226.25;;;-146.39;100.00
40460;BME280;26164;51.138;16.952;2023-03-03T07:31:57;78234.41;;;-146.39;100.00
40460;BME280;26164;51.138;16.952;2023-03-03T07:34:24;78250.75;;;-146.39;100.00
40460;BME280;26164;51.138;16.952;2023-03-03T07:36:57;78181.31;;;-146.39;100.00
40460;BME280;26164;51.138;16.952;2023-03-03T07:39:34;78201.72;;;-146.39;100.00
40460;BME280;26164;51.138;16.952;2023-03-03T07:42:18;78183.34;;;-146.39;100.00
40460;BME280;26164;51.138;16.952;2023-03-03T07:44:55;78197.66;;;-146.39;100.00
40460;BME280;26164;51.138;16.952;2023-03-03T07:47:30;78169.06;;;-146.39;100.00
40460;BME280;26164;51.138;16.952;2023-03-03T07:50:11;78173.16;;;-146.39;100.00
40460;BME280;26164;51.138;16.952;2023-03-03T07:52:49;78164.97;;;-146.39;100.00
40460;BME280;26164;51.138;16.952;2023-03-03T07:55:35;78162.94;;;-146.39;100.00
40460;BME280;26164;51.138;16.952;2023-03-03T08:03:18;78152.72;;;-146.39;100.00
40460;BME280;26164;51.138;16.952;2023-03-03T08:05:47;78154.75;;;-146.39;100.00
40460;BME280;26164;51.138;16.952;2023-03-03T08:08:30;78126.16;;;-146.39;100.00
40460;BME280;26164;51.138;16.952;2023-03-03T08:11:02;78118.00;;;-146.39;100.00
40460;BME280;26164;51.138;16.952;2023-03-03T08:16:23;78150.69;;;-146.39;100.00
40460;BME280;26164;51.138;16.952;2023-03-03T08:18:52;78152.72;;;-146.39;100.00
40460;BME280;26164;51.138;16.952;2023-03-03T08:21:19;78146.59;;;-146.39;100.00
40460;BME280;26164;51.138;16.952;2023-03-03T08:23:46;78173.16;;;-146.39;100.00
40460;BME280;26164;51.138;16.952;2023-03-03T08:26:17;78164.97;;;-146.39;100.00
40460;BME280;26164;51.138;16.952;2023-03-03T08:28:44;78185.41;;;-146.39;100.00
40460;BME280;26164;51.138;16.952;2023-03-03T08:31:10;78144.56;;;-146.39;100.00
40460;BME280;26164;51.138;16.952;2023-03-03T08:33:37;78118.00;;;-146.39;100.00
40460;BME280;26164;51.138;16.952;2023-03-03T08:36:04;78142.50;;;-146.39;100.00
40460;BME280;26164;51.138;16.952;2023-03-03T08:38:31;78128.22;;;-146.39;100.00
40460;BME280;26164;51.138;16.952;2023-03-03T08:40:56;78122.09;;;-146.39;100.00
40460;BME280;26164;51.138;16.952;2023-03-03T08:43:22;78162.94;;;-146.39;100.00
40460;BME280;26164;51.138;16.952;2023-03-03T08:45:51;78136.38;;;-146.39;100.00
40460;BME280;26164;51.138;16.952;2023-03-03T08:48:17;78144.56;;;-146.39;100.00
40460;BME280;26164;51.138;16.952;2023-03-03T08:50:44;78120.03;;;-146.39;100.00
40460;BME280;26164;51.138;16.952;2023-03-03T08:53:12;78103.69;;;-146.39;100.00
40460;BME280;26164;51.138;16.952;2023-03-03T08:55:38;78144.56;;;-146.39;100.00
40460;BME280;26164;51.138;16.952;2023-03-03T08:58:05;78132.28;;;-146.39;100.00
40460;BME280;26164;51.138;16.952;2023-03-03T09:00:31;78136.38;;;-146.39;100.00
40460;BME280;26164;51.138;16.952;2023-03-03T09:02:57;78160.88;;;-146.39;100.00
40460;BME280;26164;51.138;16.952;2023-03-03T09:05:23;78154.75;;;-146.39;100.00
40460;BME280;26164;51.138;16.952;2023-03-03T09:07:51;78173.16;;;-146.39;100.00
40460;BME280;26164;51.138;16.952;2023-03-03T09:10:20;78169.06;;;-146.39;100.00
40460;BME280;26164;51.138;16.952;2023-03-03T09:12:55;78148.63;;;-146.39;100.00
40460;BME280;26164;51.138;16.952;2023-03-03T09:15:31;78144.56;;;-146.39;100.00
40460;BME280;26164;51.138;16.952;2023-03-03T09:17:59;78142.50;;;-146.39;100.00
40460;BME280;26164;51.138;16.952;2023-03-03T09:20:38;78152.72;;;-146.39;100.00
40460;BME280;26164;51.138;16.952;2023-03-03T09:23:27;78148.63;;;-146.39;100.00
40460;BME280;26164;51.138;16.952;2023-03-03T09:25:55;78148.63;;;-146.39;100.00
40460;BME280;26164;51.138;16.952;2023-03-03T09:28:24;78183.34;;;-146.39;100.00
40460;BME280;26164;51.138;16.952;2023-03-03T09:30:53;78160.88;;;-146.39;100.00
40460;BME280;26164;51.138;16.952;2023-03-03T09:38:49;78173.16;;;-146.39;100.00
40460;BME280;26164;51.138;16.952;2023-03-03T09:56:04;78160.88;;;-146.39;100.00
40460;BME280;26164;51.138;16.952;2023-03-03T10:01:47;78128.22;;;-146.39;100.00
40460;BME280;26164;51.138;16.952;2023-03-03T10:07:20;78105.75;;;-146.39;100.00
40460;BME280;26164;51.138;16.952;2023-03-03T10:10:05;78087.38;;;-146.39;100.00
40460;BME280;26164;51.138;16.952;2023-03-03T10:12:40;78087.38;;;-146.39;100.00
40460;BME280;26164;51.138;16.952;2023-03-03T10:15:17;78066.94;;;-146.39;100.00
40460;BME280;26164;51.138;16.952;2023-03-03T10:17:49;78066.94;;;-146.39;100.00
40460;BME280;26164;51.138;16.952;2023-03-03T10:28:55;78120.03;;;-146.39;100.00
40460;BME280;26164;51.138;16.952;2023-03-03T10:34:14;78081.25;;;-146.39;100.00
40460;BME280;26164;51.138;16.952;2023-03-03T10:37:03;78075.09;;;-146.39;100.00
40460;BME280;26164;51.138;16.952;2023-03-03T10:42:39;78054.69;;;-146.39;100.00
40460;BME280;26164;51.138;16.952;2023-03-03T10:46:02;78044.47;;;-146.39;100.00
40460;BME280;26164;51.138;16.952;2023-03-03T10:48:25;78062.84;;;-146.39;100.00
40460;BME280;26164;51.138;16.952;2023-03-03T10:53:56;78017.94;;;-146.39;100.00
40460;BME280;26164;51.138;16.952;2023-03-03T10:59:21;78068.97;;;-146.39;100.00
40460;BME280;26164;51.138;16.952;2023-03-03T11:02:00;78085.31;;;-146.39;100.00
40460;BME280;26164;51.138;16.952;2023-03-03T11:07:20;78054.69;;;-146.39;100.00
40460;BME280;26164;51.138;16.952;2023-03-03T11:18:55;77923.97;;;-146.39;100.00
40460;BME280;26164;51.138;16.952;2023-03-03T11:21:28;77960.75;;;-146.39;100.00
40460;BME280;26164;51.138;16.952;2023-03-03T11:29:31;77940.31;;;-146.39;100.00
40460;BME280;26164;51.138;16.952;2023-03-03T11:37:45;77923.97;;;-146.39;100.00
40460;BME280;26164;51.138;16.952;2023-03-03T11:40:21;77909.69;;;-146.39;100.00
40460;BME280;26164;51.138;16.952;2023-03-03T11:48:52;77891.31;;;-146.39;100.00
40460;BME280;26164;51.138;16.952;2023-03-03T11:51:52;77823.91;;;-146.39;100.00
40460;BME280;26164;51.138;16.952;2023-03-03T11:54:36;77834.13;;;-146.39;100.00
40460;BME280;26164;51.138;16.952;2023-03-03T12:08:16;77944.41;;;-146.39;100.00
40460;BME280;26164;51.138;16.952;2023-03-03T12:13:29;77911.72;;;-146.39;100.00
40460;BME280;26164;51.138;16.952;2023-03-03T12:24:44;77899.47;;;-146.39;100.00
40460;BME280;26164;51.138;16.952;2023-03-03T12:27:34;77870.88;;;-146.39;100.00
40460;BME280;26164;51.138;16.952;2023-03-03T12:42:21;77862.72;;;-146.39;100.00
40460;BME280;26164;51.138;16.952;2023-03-03T12:47:50;77854.56;;;-146.39;100.00
40460;BME280;26164;51.138;16.952;2023-03-03T12:50:29;77846.38;;;-146.39;100.00
40460;BME280;26164;51.138;16.952;2023-03-03T12:55:59;77874.97;;;-146.39;100.00
40460;BME280;26164;51.138;16.952;2023-03-03T12:58:37;77866.81;;;-146.39;100.00
40460;BME280;26164;51.138;16.952;2023-03-03T13:09:27;77801.47;;;-146.39;100.00
40460;BME280;26164;51.138;16.952;2023-03-03T13:15:02;77764.69;;;-146.39;100.00
40460;BME280;26164;51.138;16.952;2023-03-03T13:20:21;77801.47;;;-146.39;100.00
40460;BME280;26164;51.138;16.952;2023-03-03T13:25:59;77805.53;;;-146.39;100.00
40460;BME280;26164;51.138;16.952;2023-03-03T13:28:39;77799.41;;;-146.39;100.00
40460;BME280;26164;51.138;16.952;2023-03-03T13:31:21;77744.28;;;-146.39;100.00
40460;BME280;26164;51.138;16.952;2023-03-03T13:33:55;77815.75;;;-146.39;100.00
40460;BME280;26164;51.138;16.952;2023-03-03T13:36:27;77797.38;;;-146.39;100.00
40460;BME280;26164;51.138;16.952;2023-03-03T13:39:14;77756.53;;;-146.39;100.00
40460;BME280;26164;51.138;16.952;2023-03-03T13:42:05;77746.31;;;-146.39;100.00
40460;BME280;26164;51.138;16.952;2023-03-03T13:44:45;77793.28;;;-146.39;100.00
40460;BME280;26164;51.138;16.952;2023-03-03T14:04:41;77825.97;;;-146.39;100.00
40460;BME280;26164;51.138;16.952;2023-03-03T14:07:24;77825.97;;;-146.39;100.00
40460;BME280;26164;51.138;16.952;2023-03-03T14:15:00;77813.72;;;-146.39;100.00
40460;BME280;26164;51.138;16.952;2023-03-03T14:20:28;77754.50;;;-146.39;100.00
40460;BME280;26164;51.138;16.952;2023-03-03T14:23:01;77785.13;;;-146.39;100.00
40460;BME280;26164;51.138;16.952;2023-03-03T14:28:47;77760.63;;;-146.39;100.00
40460;BME280;26164;51.138;16.952;2023-03-03T14:31:25;77738.16;;;-146.39;100.00
40460;BME280;26164;51.138;16.952;2023-03-03T14:36:40;77713.66;;;-146.39;100.00
40460;BME280;26164;51.138;16.952;2023-03-03T14:39:32;77756.53;;;-146.39;100.00
40460;BME280;26164;51.138;16.952;2023-03-03T14:42:30;77752.44;;;-146.39;100.00
40460;BME280;26164;51.138;16.952;2023-03-03T14:45:18;77760.63;;;-146.39;100.00
40460;BME280;26164;51.138;16.952;2023-03-03T14:47:46;77752.44;;;-146.39;100.00
40460;BME280;26164;51.138;16.952;2023-03-03T14:50:32;77715.69;;;-146.39;100.00
40460;BME280;26164;51.138;16.952;2023-03-03T14:56:20;77715.69;;;-146.39;100.00
40460;BME280;26164;51.138;16.952;2023-03-03T14:59:16;77723.84;;;-146.39;100.00
40460;BME280;26164;51.138;16.952;2023-03-03T15:01:55;77758.56;;;-146.39;100.00
40460;BME280;26164;51.138;16.952;2023-03-03T15:04:26;77781.03;;;-146.39;100.00
40460;BME280;26164;51.138;16.952;2023-03-03T15:06:54;77723.84;;;-146.39;100.00
40460;BME280;26164;51.138;16.952;2023-03-03T15:09:36;77727.94;;;-146.39;100.00
40460;BME280;26164;51.138;16.952;2023-03-03T15:12:23;77752.44;;;-146.39;100.00
40460;BME280;26164;51.138;16.952;2023-03-03T15:17:40;77783.06;;;-146.39;100.00
40460;BME280;26164;51.138;16.952;2023-03-03T15:21:03;77744.28;;;-146.39;100.00
40460;BME280;26164;51.138;16.952;2023-03-03T15:29:10;77776.94;;;-146.39;100.00
40460;BME280;26164;51.138;16.952;2023-03-03T15:32:26;77793.28;;;-146.39;100.00
40460;BME280;26164;51.138;16.952;2023-03-03T15:40:48;77797.38;;;-146.39;100.00
40460;BME280;26164;51.138;16.952;2023-03-03T15:43:37;77813.72;;;-146.39;100.00
40460;BME280;26164;51.138;16.952;2023-03-03T15:51:43;77781.03;;;-146.39;100.00
40460;BME280;26164;51.138;16.952;2023-03-03T15:54:24;77764.69;;;-146.39;100.00
40460;BME280;26164;51.138;16.952;2023-03-03T15:56:59;77744.28;;;-146.39;100.00
40460;BME280;26164;51.138;16.952;2023-03-03T15:59:39;77793.28;;;-146.39;100.00
40460;BME280;26164;51.138;16.952;2023-03-03T16:02:36;77799.41;;;-146.39;100.00
40460;BME280;26164;51.138;16.952;2023-03-03T16:05:43;77817.78;;;-146.39;100.00
40460;BME280;26164;51.138;16.952;2023-03-03T16:08:44;77813.72;;;-146.39;100.00
40460;BME280;26164;51.138;16.952;2023-03-03T16:14:58;77809.63;;;-146.39;100.00
40460;BME280;26164;51.138;16.952;2023-03-03T16:17:42;77825.97;;;-146.39;100.00
40460;BME280;26164;51.138;16.952;2023-03-03T16:23:43;77844.34;;;-146.39;100.00